Time;durP1;ratioP1;P1;durP2;ratioP2;P2;SDS_P1;SDS_P2;PMS_P1;PMS_P2;Temp;Humidity;BMP_temperature;BMP_pressure;BME280_temperature;BME280_humidity;BME280_pressure;Samples;Min_cycle;Max_cycle;Signal;HPM_P1;HPM_P2
2022/03/30 00:00:01;;;;;;;29.52;18.20;;;;;;;;;;5093974;28;20081;-56
2022/03/30 00:02:27;;;;;;;32.72;18.40;;;;;;;;;;5093428;28;20040;-56
2022/03/30 00:04:54;;;;;;;39.80;18.77;;;2.70;99.90;;;;;;5093444;28;20046;-56
2022/03/30 00:07:20;;;;;;;30.75;17.73;;;;;;;;;;5093952;28;20047;-56
2022/03/30 00:09:46;;;;;;;31.77;18.65;;;;;;;;;;5093699;28;20040;-56
2022/03/30 00:12:14;;;;;;;41.28;19.55;;;2.80;99.90;;;;;;5092593;28;20055;-55
2022/03/30 00:14:40;;;;;;;35.85;17.40;;;;;;;;;;5091910;28;20032;-55
2022/03/30 00:17:06;;;;;;;34.25;18.13;;;;;;;;;;5093681;28;20446;-56
2022/03/30 00:19:35;;;;;;;32.22;18.52;;;3.00;99.90;;;;;;5092754;28;20070;-56
2022/03/30 00:22:01;;;;;;;35.85;19.27;;;;;;;;;;5091412;28;20998;-55
2022/03/30 00:24:28;;;;;;;40.20;18.80;;;;;;;;;;5091699;28;20562;-55
2022/03/30 00:26:55;;;;;;;34.33;18.98;;;2.90;99.90;;;;;;5091605;28;20415;-55
2022/03/30 00:29:21;;;;;;;33.63;16.98;;;;;;;;;;5092420;28;20069;-56
2022/03/30 00:31:48;;;;;;;38.42;19.02;;;;;;;;;;5091578;28;20126;-54
2022/03/30 00:34:14;;;;;;;35.60;17.67;;;;;;;;;;5092040;28;20047;-56
2022/03/30 00:36:40;;;;;;;34.45;17.67;;;;;;;;;;5092225;28;20044;-57
2022/03/30 00:39:06;;;;;;;35.90;18.42;;;;;;;;;;5091119;28;20699;-57
2022/03/30 00:41:32;;;;;;;31.77;18.27;;;;;;;;;;5091768;28;20097;-57
2022/03/30 00:43:58;;;;;;;38.90;19.88;;;;;;;;;;5092326;28;20048;-57
2022/03/30 00:46:24;;;;;;;37.95;20.40;;;;;;;;;;5092952;28;20048;-58
2022/03/30 00:48:52;;;;;;;40.25;20.30;;;3.50;99.90;;;;;;5092909;28;20158;-59
2022/03/30 00:51:18;;;;;;;41.28;19.95;;;;;;;;;;5091189;28;20050;-57
2022/03/30 00:53:44;;;;;;;44.97;20.02;;;;;;;;;;5090043;28;20035;-55
2022/03/30 00:56:11;;;;;;;42.28;21.15;;;3.40;99.90;;;;;;5092502;28;20047;-55
2022/03/30 00:58:37;;;;;;;43.63;21.60;;;;;;;;;;5092227;28;20050;-54
2022/03/30 01:01:03;;;;;;;46.25;22.00;;;;;;;;;;5091532;28;20039;-54
2022/03/30 01:03:30;;;;;;;49.05;22.63;;;;;;;;;;5091968;28;20044;-55
2022/03/30 01:05:56;;;;;;;36.80;20.27;;;;;;;;;;5091579;28;20334;-51
2022/03/30 01:08:22;;;;;;;44.85;21.08;;;;;;;;;;5090980;28;20085;-54
2022/03/30 01:10:48;;;;;;;42.17;20.80;;;4.00;99.90;;;;;;5072169;28;20530;-53
2022/03/30 01:13:14;;;;;;;40.65;20.90;;;;;;;;;;5090902;28;20134;-54
2022/03/30 01:15:41;;;;;;;45.55;22.23;;;;;;;;;;5074074;28;20104;-54
2022/03/30 01:18:08;;;;;;;37.50;19.67;;;3.90;99.90;;;;;;5093081;28;20138;-53
2022/03/30 01:20:34;;;;;;;36.03;18.92;;;;;;;;;;5092805;28;20644;-54
2022/03/30 01:23:02;;;;;;;41.25;18.73;;;4.00;99.90;;;;;;5090716;28;20094;-53
2022/03/30 01:25:28;;;;;;;40.00;18.83;;;;;;;;;;5092988;28;20039;-52
2022/03/30 01:27:54;;;;;;;37.97;19.52;;;;;;;;;;5091476;28;20224;-50
2022/03/30 01:33:07;;;;;;;32.10;17.88;;;4.30;99.90;;;;;;5092462;28;20047;-54
2022/03/30 01:35:34;;;;;;;41.42;19.77;;;;;;;;;;5092720;28;20039;-51
2022/03/30 01:38:00;;;;;;;42.20;19.85;;;;;;;;;;5072921;28;20963;-52
2022/03/30 01:40:26;;;;;;;42.78;18.02;;;;;;;;;;5091056;28;20040;-52
2022/03/30 01:42:52;;;;;;;39.67;19.05;;;;;;;;;;5090511;28;20585;-53
2022/03/30 01:45:19;;;;;;;34.95;18.35;;;;;;;;;;5089558;28;20515;-50
2022/03/30 01:47:49;;;;;;;38.45;20.23;;;4.30;99.90;;;;;;5092150;28;20648;-52
2022/03/30 01:50:16;;;;;;;31.58;18.17;;;;;;;;;;5090836;28;20085;-53
2022/03/30 01:52:42;;;;;;;38.40;18.50;;;;;;;;;;5089925;28;20039;-53
2022/03/30 01:55:08;;;;;;;34.45;19.70;;;;;;;;;;5090917;28;20043;-52
2022/03/30 01:57:35;;;;;;;42.70;19.73;;;;;;;;;;5091573;28;20047;-53
2022/03/30 02:00:04;;;;;;;41.58;20.73;;;;;;;;;;5090560;28;20173;-50
2022/03/30 02:02:30;;;;;;;35.00;19.13;;;;;;;;;;5089594;28;20050;-52
2022/03/30 02:04:56;;;;;;;38.47;19.88;;;;;;;;;;5089023;28;20040;-52
2022/03/30 02:07:22;;;;;;;40.83;21.60;;;;;;;;;;5095046;28;20043;-53
2022/03/30 02:09:48;;;;;;;34.40;19.67;;;;;;;;;;5095579;28;20043;-49
2022/03/30 02:12:14;;;;;;;36.80;20.27;;;;;;;;;;5092801;28;20039;-51
2022/03/30 02:14:43;;;;;;;35.03;19.77;;;;;;;;;;5093859;28;20526;-50
2022/03/30 02:17:09;;;;;;;35.47;18.95;;;;;;;;;;5094545;28;20096;-51
2022/03/30 02:19:35;;;;;;;37.58;19.38;;;;;;;;;;5095245;28;20135;-51
2022/03/30 02:22:01;;;;;;;41.25;19.80;;;;;;;;;;5093677;28;20090;-53
2022/03/30 02:24:29;;;;;;;32.13;18.20;;;4.70;99.90;;;;;;5095231;28;20130;-53
2022/03/30 02:26:55;;;;;;;40.17;18.70;;;;;;;;;;5096120;28;20046;-55
2022/03/30 02:29:21;;;;;;;34.22;19.33;;;;;;;;;;5094454;28;20043;-54
2022/03/30 02:31:47;;;;;;;37.38;18.48;;;4.80;99.90;;;;;;5095593;28;20036;-51
2022/03/30 02:34:13;;;;;;;34.38;15.70;;;;;;;;;;5094294;28;20044;-55
2022/03/30 02:36:40;;;;;;;32.72;14.70;;;;;;;;;;5095361;28;20044;-53
2022/03/30 02:39:08;;;;;;;26.45;14.20;;;4.80;99.90;;;;;;5095130;28;20127;-52
2022/03/30 02:41:36;;;;;;;24.15;13.68;;;5.10;99.90;;;;;;5076212;28;20043;-53
2022/03/30 02:44:02;;;;;;;23.92;10.63;;;;;;;;;;5095373;28;20575;-54
2022/03/30 02:46:28;;;;;;;13.80;7.57;;;;;;;;;;5076416;28;20792;-53
2022/03/30 02:48:58;;;;;;;16.38;7.80;;;5.10;99.90;;;;;;5094963;28;20036;-52
2022/03/30 02:51:27;;;;;;;10.63;4.55;;;;;;;;;;5094674;28;20855;-52
2022/03/30 02:53:53;;;;;;;6.93;3.28;;;;;;;;;;5093316;28;20559;-54
2022/03/30 02:56:19;;;;;;;7.13;2.90;;;5.30;99.90;;;;;;5094092;28;20413;-55
2022/03/30 02:58:45;;;;;;;7.65;2.58;;;;;;;;;;5092704;28;20112;-53
2022/03/30 03:01:11;;;;;;;5.30;1.90;;;;;;;;;;5092419;28;20114;-55
2022/03/30 03:03:37;;;;;;;5.28;1.80;;;;;;;;;;5093432;28;20765;-54
2022/03/30 03:06:03;;;;;;;5.07;2.10;;;;;;;;;;5093975;28;20043;-54
2022/03/30 03:08:30;;;;;;;6.45;1.13;;;;;;;;;;5093568;28;20089;-55
2022/03/30 03:10:57;;;;;;;7.30;1.67;;;;;;;;;;5092841;28;20035;-54
2022/03/30 03:13:23;;;;;;;6.57;1.17;;;;;;;;;;5093702;28;20052;-54
2022/03/30 03:15:49;;;;;;;8.90;1.52;;;;;;;;;;5093711;28;20034;-54
2022/03/30 03:18:15;;;;;;;7.07;1.30;;;5.10;99.90;;;;;;5092017;28;20135;-52
2022/03/30 03:20:44;;;;;;;3.13;1.40;;;5.10;99.90;;;;;;5092170;28;20053;-55
2022/03/30 03:23:11;;;;;;;5.00;1.00;;;;;;;;;;5093052;28;20028;-52
2022/03/30 03:25:39;;;;;;;7.45;1.55;;;;;;;;;;5093658;28;20406;-54
2022/03/30 03:28:09;;;;;;;5.75;1.52;;;5.00;99.90;;;;;;5092360;28;20046;-54
2022/03/30 03:30:36;;;;;;;5.10;1.20;;;;;;;;;;5092150;28;20150;-54
2022/03/30 03:33:02;;;;;;;6.65;0.77;;;5.10;99.90;;;;;;5092751;28;20389;-53
2022/03/30 03:35:28;;;;;;;3.22;0.98;;;5.10;99.90;;;;;;5092153;28;21083;-54
2022/03/30 03:37:54;;;;;;;3.05;0.73;;;;;;;;;;5094272;28;20055;-56
2022/03/30 03:40:21;;;;;;;4.13;0.93;;;;;;;;;;5093934;28;20051;-51
2022/03/30 03:42:50;;;;;;;3.45;0.50;;;5.10;99.90;;;;;;5094687;28;20717;-52
2022/03/30 03:45:18;;;;;;;1.55;0.38;;;5.00;99.90;;;;;;5094480;28;20052;-50
2022/03/30 03:47:44;;;;;;;2.72;0.60;;;;;;;;;;5076336;28;20055;-49
2022/03/30 03:50:11;;;;;;;2.80;0.60;;;;;;;;;;5094929;28;20036;-50
2022/03/30 03:52:39;;;;;;;2.10;0.52;;;5.10;99.90;;;;;;5076975;28;20040;-49
2022/03/30 03:55:05;;;;;;;0.85;0.30;;;5.00;99.90;;;;;;5094616;28;20036;-50
2022/03/30 03:57:35;;;;;;;1.98;0.50;;;;;;;;;;5093551;28;20039;-52
2022/03/30 04:00:01;;;;;;;1.30;0.30;;;4.60;99.90;;;;;;5094006;28;20105;-50
2022/03/30 04:02:27;;;;;;;3.38;0.90;;;;;;;;;;5094514;28;20039;-50
2022/03/30 04:04:53;;;;;;;2.13;0.77;;;;;;;;;;5074754;28;20130;-51
2022/03/30 04:07:21;;;;;;;1.23;0.40;;;4.60;99.90;;;;;;5092592;28;20446;-48
2022/03/30 04:09:47;;;;;;;3.75;0.77;;;;;;;;;;5092486;28;20694;-49
2022/03/30 04:12:13;;;;;;;3.58;0.65;;;;;;;;;;5092299;28;20397;-52
2022/03/30 04:14:39;;;;;;;3.40;0.60;;;4.70;99.90;;;;;;5093230;28;20044;-49
2022/03/30 04:17:05;;;;;;;1.95;0.70;;;4.60;99.90;;;;;;5092846;28;20055;-50
2022/03/30 04:19:31;;;;;;;2.25;0.50;;;;;;;;;;5093607;28;20035;-49
2022/03/30 04:21:57;;;;;;;1.65;0.50;;;;;;;;;;5092686;28;20043;-52
2022/03/30 04:24:25;;;;;;;3.35;0.60;;;4.60;99.90;;;;;;5092289;28;20140;-48
2022/03/30 04:26:51;;;;;;;4.70;0.70;;;;;;;;;;5092076;28;20042;-50
2022/03/30 04:29:17;;;;;;;4.63;0.80;;;;;;;;;;5092666;28;20051;-52
2022/03/30 04:31:44;;;;;;;3.33;0.63;;;;;;;;;;5093128;28;20096;-54
2022/03/30 04:34:10;;;;;;;4.75;0.75;;;;;;;;;;5091628;28;20060;-52
2022/03/30 04:36:36;;;;;;;2.85;1.23;;;;;;;;;;5091723;28;20122;-55
2022/03/30 04:39:02;;;;;;;6.07;1.00;;;;;;;;;;5090416;28;20047;-55
2022/03/30 04:41:28;;;;;;;12.23;2.45;;;;;;;;;;5092226;28;20411;-55
2022/03/30 04:43:54;;;;;;;4.43;0.90;;;;;;;;;;5091487;28;20035;-54
2022/03/30 04:46:20;;;;;;;5.07;1.10;;;;;;;;;;5091429;28;20073;-54
2022/03/30 04:48:46;;;;;;;2.70;0.90;;;;;;;;;;5093163;28;20054;-55
2022/03/30 04:51:12;;;;;;;2.95;0.80;;;;;;;;;;5090865;28;20044;-55
2022/03/30 04:53:40;;;;;;;5.05;1.15;;;4.00;99.90;;;;;;5090257;28;20114;-55
2022/03/30 04:56:06;;;;;;;5.07;1.08;;;;;;;;;;5090883;28;20618;-55
2022/03/30 04:58:33;;;;;;;5.05;1.05;;;;;;;;;;5091941;28;20637;-54
2022/03/30 05:00:59;;;;;;;3.00;1.00;;;;;;;;;;5091059;28;20104;-55
2022/03/30 05:03:25;;;;;;;7.43;1.55;;;;;;;;;;5090663;28;20047;-55
2022/03/30 05:05:51;;;;;;;3.15;1.10;;;;;;;;;;5091139;28;20692;-55
2022/03/30 05:08:17;;;;;;;4.07;1.20;;;;;;;;;;5092539;28;20043;-55
2022/03/30 05:10:46;;;;;;;3.83;1.38;;;3.90;99.90;;;;;;5092944;28;20040;-55
2022/03/30 05:13:12;;;;;;;3.17;1.30;;;;;;;;;;5091970;28;20043;-55
2022/03/30 05:15:38;;;;;;;3.70;1.30;;;;;;;;;;5091662;28;20600;-55
2022/03/30 05:18:06;;;;;;;3.17;1.60;;;3.70;99.90;;;;;;5092596;28;20058;-54
2022/03/30 05:20:33;;;;;;;5.25;1.30;;;;;;;;;;5092760;28;20047;-55
2022/03/30 05:22:59;;;;;;;6.97;2.13;;;;;;;;;;5090110;28;20040;-55
2022/03/30 05:25:27;;;;;;;5.03;1.88;;;3.80;99.90;;;;;;5091491;28;20764;-55
2022/03/30 05:27:53;;;;;;;4.82;1.70;;;;;;;;;;5092102;28;20215;-53
2022/03/30 05:30:19;;;;;;;5.35;1.60;;;;;;;;;;5089870;28;20616;-54
2022/03/30 05:32:48;;;;;;;5.90;1.73;;;3.70;99.90;;;;;;5090456;28;20059;-55
2022/03/30 05:35:14;;;;;;;4.60;1.60;;;;;;;;;;5090033;28;20785;-53
2022/03/30 05:37:40;;;;;;;4.05;1.40;;;;;;;;;;5091305;28;20055;-55
2022/03/30 05:40:07;;;;;;;7.00;1.83;;;3.50;99.90;;;;;;5090611;28;20450;-56
2022/03/30 05:42:33;;;;;;;5.05;2.45;;;;;;;;;;5073502;28;20043;-55
2022/03/30 05:45:00;;;;;;;5.28;1.70;;;;;;;;;;5093530;28;20042;-54
2022/03/30 05:47:28;;;;;;;3.35;1.33;;;;;;;;;;5094692;28;20462;-50
2022/03/30 05:49:54;;;;;;;10.35;1.70;;;;;;;;;;5095564;28;20503;-54
2022/03/30 05:52:20;;;;;;;4.65;1.60;;;;;;;;;;5094711;28;20053;-51
2022/03/30 05:54:46;;;;;;;4.60;1.50;;;;;;;;;;5092458;28;20035;-54
2022/03/30 05:57:13;;;;;;;6.70;1.90;;;;;;;;;;5094720;28;20508;-51
2022/03/30 05:59:42;;;;;;;4.63;1.60;;;3.50;99.90;;;;;;5094750;28;20039;-53
2022/03/30 06:02:10;;;;;;;4.78;1.38;;;3.40;99.90;;;;;;5094373;28;20043;-54
2022/03/30 06:04:38;;;;;;;3.00;1.60;;;;;;;;;;5094249;28;20124;-55
2022/03/30 06:07:04;;;;;;;5.35;2.55;;;;;;;;;;5093739;28;20146;-54
2022/03/30 06:09:33;;;;;;;6.38;1.80;;;3.80;99.90;;;;;;5094873;28;20441;-49
2022/03/30 06:12:03;;;;;;;4.50;1.67;;;4.10;99.90;;;;;;5092324;28;20043;-53
2022/03/30 06:14:33;;;;;;;5.97;2.28;;;4.20;99.90;;;;;;5093980;28;20067;-55
2022/03/30 06:17:00;;;;;;;6.95;1.85;;;4.20;99.90;;;;;;5093855;28;20051;-54
2022/03/30 06:19:26;;;;;;;6.93;1.90;;;;;;;;;;5095670;28;20574;-52
2022/03/30 06:21:54;;;;;;;7.03;1.85;;;4.30;99.90;;;;;;5096603;28;20492;-55
2022/03/30 06:24:20;;;;;;;3.72;1.63;;;;;;;;;;5095349;28;20043;-51
2022/03/30 06:26:46;;;;;;;5.53;1.80;;;;;;;;;;5095378;28;20039;-54
2022/03/30 06:29:13;;;;;;;4.35;1.92;;;;;;;;;;5095097;28;20116;-50
2022/03/30 06:31:39;;;;;;;6.60;1.73;;;;;;;;;;5094703;28;20123;-55
2022/03/30 06:34:05;;;;;;;4.70;2.10;;;;;;;;;;5093269;28;20036;-54
2022/03/30 06:36:33;;;;;;;6.68;1.63;;;;;;;;;;5093015;28;20039;-53
2022/03/30 06:39:00;;;;;;;5.68;1.80;;;6.00;99.90;;;;;;5092878;28;20074;-54
2022/03/30 06:41:26;;;;;;;4.90;1.65;;;6.50;99.90;;;;;;5094129;28;20036;-51
2022/03/30 06:43:53;;;;;;;4.88;1.67;;;6.50;99.90;;;;;;5093204;28;20052;-54
2022/03/30 06:46:19;;;;;;;7.68;2.40;;;7.80;99.90;;;;;;5092539;28;20279;-54
2022/03/30 06:48:46;;;;;;;4.22;1.50;;;7.20;99.90;;;;;;5093650;28;20047;-53
2022/03/30 06:51:13;;;;;;;6.47;1.50;;;8.60;99.90;;;;;;5093113;28;20634;-54
2022/03/30 06:53:39;;;;;;;4.80;1.33;;;7.50;99.90;;;;;;5092839;28;20046;-52
2022/03/30 06:56:05;;;;;;;11.30;1.48;;;7.60;99.90;;;;;;5092947;28;20039;-54
2022/03/30 06:58:31;;;;;;;5.00;1.40;;;7.40;99.90;;;;;;5074384;28;20044;-54
2022/03/30 07:00:59;;;;;;;5.22;1.35;;;7.50;99.90;;;;;;5093558;28;20130;-49
2022/03/30 07:03:28;;;;;;;5.60;1.50;;;7.20;99.90;;;;;;5093553;28;20116;-50
2022/03/30 07:05:57;;;;;;;4.50;1.83;;;8.50;99.90;;;;;;5093258;28;20044;-54
2022/03/30 07:11:08;;;;;;;4.70;1.40;;;8.00;99.90;;;;;;5093083;28;20101;-52
2022/03/30 07:13:34;;;;;;;4.45;1.27;;;7.20;99.90;;;;;;5093322;28;20563;-51
2022/03/30 07:15:59;;;;;;;4.63;1.55;;;7.30;99.90;;;;;;5092860;28;20042;-55
2022/03/30 07:18:26;;;;;;;6.70;1.58;;;7.50;99.90;;;;;;5092757;28;20112;-54
2022/03/30 07:20:52;;;;;;;9.18;1.77;;;8.10;99.90;;;;;;5094681;28;20119;-54
2022/03/30 07:23:18;;;;;;;7.22;1.98;;;7.90;99.90;;;;;;5074676;28;20158;-53
2022/03/30 07:25:44;;;;;;;7.45;1.80;;;7.90;99.90;;;;;;5073193;28;20040;-53
2022/03/30 07:28:11;;;;;;;4.45;1.45;;;8.20;99.90;;;;;;5093779;28;20051;-51
2022/03/30 07:30:37;;;;;;;7.93;1.70;;;9.80;99.90;;;;;;5093918;28;20518;-51
2022/03/30 07:33:05;;;;;;;6.18;1.50;;;8.40;99.90;;;;;;5094085;28;20035;-49
2022/03/30 07:35:33;;;;;;;18.25;1.80;;;8.40;99.90;;;;;;5093235;28;20050;-54
2022/03/30 07:38:00;;;;;;;5.13;1.50;;;10.00;99.90;;;;;;5075632;28;20047;-52
2022/03/30 07:40:29;;;;;;;7.90;1.55;;;8.30;99.90;;;;;;5093119;28;20040;-54
2022/03/30 07:42:56;;;;;;;7.07;1.50;;;8.10;99.90;;;;;;5092822;28;20099;-50
2022/03/30 07:45:23;;;;;;;8.32;2.50;;;7.90;99.90;;;;;;5072586;28;20112;-52
2022/03/30 07:47:51;;;;;;;7.80;2.15;;;7.80;99.90;;;;;;5093634;28;20035;-50
2022/03/30 07:50:17;;;;;;;6.88;1.40;;;7.70;99.90;;;;;;5091441;28;20039;-54
2022/03/30 07:52:43;;;;;;;9.82;1.40;;;7.70;99.90;;;;;;5092675;28;20658;-54
2022/03/30 07:55:11;;;;;;;5.95;1.23;;;7.80;99.90;;;;;;5093635;28;20124;-54
2022/03/30 07:57:37;;;;;;;6.68;1.58;;;7.90;99.90;;;;;;5093089;28;20074;-52
2022/03/30 08:00:07;;;;;;;7.38;1.20;;;7.90;99.90;;;;;;5092078;28;20124;-51
2022/03/30 08:02:33;;;;;;;7.57;1.33;;;7.50;99.90;;;;;;5092025;28;20035;-50
2022/03/30 08:04:59;;;;;;;4.88;0.98;;;7.40;99.90;;;;;;5091222;28;20046;-50
2022/03/30 08:07:29;;;;;;;6.10;0.93;;;7.10;99.90;;;;;;5093170;28;20280;-50
2022/03/30 08:09:55;;;;;;;8.43;1.58;;;6.80;99.90;;;;;;5092976;28;20074;-51
2022/03/30 08:12:22;;;;;;;11.77;1.30;;;6.70;99.90;;;;;;5091474;28;20032;-49
2022/03/30 08:14:49;;;;;;;8.68;1.70;;;;;;;;;;5091834;28;20035;-49
2022/03/30 08:17:17;;;;;;;4.07;1.10;;;6.50;99.90;;;;;;5092610;28;20523;-53
2022/03/30 08:19:43;;;;;;;4.95;0.98;;;;;;;;;;5093026;28;20048;-52
2022/03/30 08:22:28;;;;;;;7.00;1.40;;;;;;;;;;5091601;28;20750;-52
2022/03/30 08:25:00;;;;;;;8.77;1.98;;;6.60;99.90;;;;;;5091442;28;20036;-53
2022/03/30 08:27:28;;;;;;;6.70;1.33;;;6.60;99.90;;;;;;5092352;28;20048;-50
2022/03/30 08:29:55;;;;;;;7.13;0.95;;;6.60;99.90;;;;;;5091940;28;20072;-53
2022/03/30 08:32:21;;;;;;;7.32;1.92;;;;;;;;;;5092437;28;20043;-52
2022/03/30 08:34:49;;;;;;;5.82;1.00;;;6.90;99.90;;;;;;5091957;28;20039;-51
2022/03/30 08:37:15;;;;;;;7.05;0.88;;;7.20;99.90;;;;;;5091675;28;20036;-50
2022/03/30 08:39:41;;;;;;;5.22;0.75;;;7.20;99.90;;;;;;5090768;28;20400;-51
2022/03/30 08:42:08;;;;;;;6.20;1.48;;;7.10;99.90;;;;;;5092099;28;20069;-49
2022/03/30 08:44:37;;;;;;;5.28;1.05;;;7.00;99.90;;;;;;5091374;28;20492;-52
2022/03/30 08:47:05;;;;;;;6.18;1.02;;;6.90;99.90;;;;;;5090997;28;20043;-50
2022/03/30 08:49:35;;;;;;;5.22;0.90;;;;;;;;;;5091925;28;20089;-54
2022/03/30 08:52:07;;;;;;;4.25;1.00;;;6.90;99.90;;;;;;5090905;28;20038;-55
2022/03/30 08:54:33;;;;;;;6.22;0.88;;;7.00;99.90;;;;;;5072786;28;20043;-51
2022/03/30 08:56:59;;;;;;;4.03;0.90;;;;;;;;;;5092319;28;20057;-50
2022/03/30 08:59:25;;;;;;;5.97;0.77;;;;;;;;;;5091640;28;20039;-51
2022/03/30 09:01:55;;;;;;;6.18;0.88;;;7.00;99.90;;;;;;5093208;28;20036;-50
2022/03/30 09:04:21;;;;;;;3.85;0.70;;;7.10;99.90;;;;;;5092794;28;20043;-53
2022/03/30 09:06:51;;;;;;;5.68;0.80;;;7.10;99.90;;;;;;5092711;28;20047;-49
2022/03/30 09:09:31;;;;;;;4.25;1.00;;;7.20;99.90;;;;;;5091533;28;20933;-49
2022/03/30 09:11:57;;;;;;;2.80;0.57;;;;;;;;;;5092226;28;20598;-50
2022/03/30 09:14:34;;;;;;;6.25;1.00;;;7.10;99.90;;;;;;5090769;28;20144;-52
2022/03/30 09:17:05;;;;;;;2.60;0.60;;;7.00;99.90;;;;;;5092982;28;20199;-49
2022/03/30 09:19:36;;;;;;;4.75;0.73;;;7.00;99.90;;;;;;5092250;28;20040;-52
2022/03/30 09:22:05;;;;;;;3.83;0.70;;;7.00;99.90;;;;;;5092382;28;20096;-54
2022/03/30 09:24:33;;;;;;;9.43;0.60;;;7.00;99.90;;;;;;5093011;28;20031;-54
2022/03/30 09:27:00;;;;;;;5.03;0.68;;;7.10;99.90;;;;;;5092651;28;20040;-53
2022/03/30 09:29:31;;;;;;;4.57;0.68;;;7.00;99.90;;;;;;5091223;28;20032;-52
2022/03/30 09:32:01;;;;;;;3.17;0.70;;;7.40;99.90;;;;;;5090779;28;20032;-51
2022/03/30 09:34:33;;;;;;;4.30;0.77;;;7.70;99.90;;;;;;5072070;28;20580;-50
2022/03/30 09:36:58;;;;;;;;;;;7.70;99.90;;;;;;5090465;28;20044;-53
2022/03/30 09:39:38;;;;;;;6.40;0.70;;;7.70;99.90;;;;;;5089865;28;19923;-49
2022/03/30 09:42:06;;;;;;;5.60;0.70;;;7.90;99.90;;;;;;5091032;28;20062;-49
2022/03/30 09:44:45;;;;;;;4.50;0.60;;;8.40;99.90;;;;;;5090595;28;20089;-49
2022/03/30 09:47:11;;;;;;;10.27;1.00;;;8.20;99.90;;;;;;5090753;28;20424;-53
2022/03/30 09:49:39;;;;;;;4.90;0.82;;;8.30;99.90;;;;;;5091113;28;20526;-52
2022/03/30 09:52:20;;;;;;;3.45;0.70;;;8.40;99.90;;;;;;5091501;28;20036;-49
2022/03/30 09:54:53;;;;;;;3.10;0.70;;;8.40;99.90;;;;;;5089308;28;20093;-51
2022/03/30 09:57:24;;;;;;;3.05;0.70;;;8.50;99.90;;;;;;5090719;28;20729;-49
2022/03/30 10:00:16;;;;;;;3.15;0.50;;;8.40;99.90;;;;;;5091294;28;20712;-50
2022/03/30 10:02:44;;;;;;;;;;;8.40;99.90;;;;;;5091599;28;20039;-48
2022/03/30 10:05:14;;;;;;;5.60;1.00;;;8.40;99.90;;;;;;5090176;28;20022;-52
2022/03/30 10:07:40;;;;;;;5.60;0.90;;;8.50;99.90;;;;;;5089660;28;21162;-51
2022/03/30 10:10:10;;;;;;;4.05;0.75;;;8.60;99.90;;;;;;5090328;28;20099;-53
2022/03/30 10:12:37;;;;;;;4.57;0.60;;;8.60;99.90;;;;;;5090231;28;20070;-52
2022/03/30 10:15:05;;;;;;;2.40;0.50;;;8.60;99.90;;;;;;5091082;28;20042;-52
2022/03/30 10:17:31;;;;;;;3.90;0.65;;;8.60;99.90;;;;;;5090049;28;20530;-50
2022/03/30 10:19:58;;;;;;;2.70;0.68;;;8.50;99.90;;;;;;5090731;28;20044;-52
2022/03/30 10:22:35;;;;;;;3.05;0.68;;;8.50;99.90;;;;;;5072524;28;20075;-53
2022/03/30 10:25:10;;;;;;;3.53;0.85;;;8.70;99.90;;;;;;5088853;28;20066;-50
2022/03/30 10:28:13;;;;;;;3.28;0.73;;;8.40;99.90;;;;;;5093483;28;20504;-49
2022/03/30 10:30:43;;;;;;;2.15;0.50;;;8.50;99.90;;;;;;4994424;28;20053;-50
2022/03/30 10:33:12;;;;;;;3.80;0.82;;;8.60;99.90;;;;;;5011715;28;20063;-50
2022/03/30 10:35:46;;;;;;;5.72;0.80;;;8.80;99.90;;;;;;5011347;28;20049;-54
2022/03/30 10:38:15;;;;;;;2.95;0.77;;;8.70;99.90;;;;;;5011751;28;20937;-49
2022/03/30 10:40:42;;;;;;;2.95;0.40;;;8.90;99.90;;;;;;5011846;28;20076;-48
2022/03/30 10:43:26;;;;;;;5.13;0.70;;;9.10;99.90;;;;;;5010295;28;20054;-53
2022/03/30 10:46:02;;;;;;;4.95;0.60;;;9.60;99.90;;;;;;5009309;28;20046;-53
2022/03/30 10:48:28;;;;;;;2.95;0.55;;;9.00;99.90;;;;;;5008842;28;20072;-51
2022/03/30 10:51:13;;;;;;;4.03;0.93;;;9.00;99.90;;;;;;5009612;28;20045;-50
2022/03/30 10:53:50;;;;;;;5.95;1.45;;;10.90;99.90;;;;;;5010443;28;20089;-49
2022/03/30 10:56:15;;;;;;;3.17;0.70;;;9.00;99.90;;;;;;5009405;28;20543;-55
2022/03/30 10:58:53;;;;;;;3.97;1.92;;;8.90;99.90;;;;;;5011498;28;20052;-50
2022/03/30 11:01:30;;;;;;;4.15;0.80;;;8.80;99.90;;;;;;5025567;28;20046;-53
2022/03/30 11:03:57;;;;;;;6.30;0.90;;;8.50;99.90;;;;;;5009615;28;20045;-53
2022/03/30 11:06:25;;;;;;;3.53;1.00;;;8.20;99.90;;;;;;5012272;28;20176;-51
2022/03/30 11:08:51;;;;;;;5.20;1.63;;;9.40;99.90;;;;;;5092592;28;20050;-51
2022/03/30 11:11:34;;;;;;;6.13;0.93;;;8.20;99.90;;;;;;5094564;28;20625;-50
2022/03/30 11:14:22;;;;;;;3.70;0.73;;;8.10;99.90;;;;;;5092402;28;20039;-53
2022/03/30 11:16:50;;;;;;;4.78;1.00;;;7.90;99.90;;;;;;5093362;28;20047;-50
2022/03/30 11:19:17;;;;;;;5.15;1.00;;;8.00;99.90;;;;;;5092824;28;20385;-49
2022/03/30 11:22:07;;;;;;;2.92;0.77;;;8.00;99.90;;;;;;5094235;28;20036;-51
2022/03/30 11:24:33;;;;;;;4.93;1.13;;;;;;;;;;5093268;28;20059;-50
2022/03/30 11:26:58;;;;;;;4.65;1.10;;;7.90;99.90;;;;;;5094109;28;20163;-53
2022/03/30 11:32:26;;;;;;;2.53;0.68;;;7.90;99.90;;;;;;5093118;28;20065;-50
2022/03/30 11:34:52;;;;;;;2.85;0.60;;;7.70;99.90;;;;;;5091715;28;20040;-50
2022/03/30 11:37:19;;;;;;;6.53;1.10;;;7.70;99.90;;;;;;5090551;28;20049;-52
2022/03/30 11:39:49;;;;;;;5.47;0.90;;;7.90;99.90;;;;;;5093009;28;20076;-50
2022/03/30 11:42:19;;;;;;;3.75;1.25;;;7.90;99.90;;;;;;5092720;28;20112;-48
2022/03/30 11:47:35;;;;;;;5.45;0.90;;;7.90;99.90;;;;;;5093460;28;20054;-49
2022/03/30 11:50:01;;;;;;;3.13;0.60;;;8.20;99.90;;;;;;5093945;28;20039;-50
2022/03/30 11:52:27;;;;;;;2.47;0.60;;;8.40;99.90;;;;;;5094008;28;20035;-48
2022/03/30 11:54:54;;;;;;;3.15;0.55;;;8.60;99.90;;;;;;5093960;28;20092;-50
2022/03/30 11:57:21;;;;;;;5.93;0.85;;;8.90;99.90;;;;;;5092181;28;20389;-54
2022/03/30 11:59:57;;;;;;;6.25;0.73;;;9.20;99.90;;;;;;5092882;28;20054;-52
2022/03/30 12:02:25;;;;;;;7.97;0.80;;;9.20;99.90;;;;;;5092706;28;20708;-49
2022/03/30 12:04:54;;;;;;;3.50;0.60;;;9.40;99.90;;;;;;5092818;28;20255;-49
2022/03/30 12:07:22;;;;;;;3.97;0.55;;;9.60;99.90;;;;;;5092355;28;20303;-51
2022/03/30 12:09:55;;;;;;;4.05;0.57;;;9.80;99.90;;;;;;5091691;28;20044;-52
2022/03/30 12:12:35;;;;;;;3.08;0.88;;;9.20;99.90;;;;;;5091476;28;20047;-50
2022/03/30 12:15:09;;;;;;;3.75;0.75;;;8.60;99.90;;;;;;5090735;28;20047;-50
2022/03/30 12:17:37;;;;;;;6.65;0.90;;;8.50;99.90;;;;;;5091289;28;20124;-52
2022/03/30 12:20:08;;;;;;;3.72;0.70;;;8.60;99.90;;;;;;5091543;28;20036;-50
2022/03/30 12:22:36;;;;;;;1.55;0.45;;;8.70;99.90;;;;;;5092719;28;20454;-53
2022/03/30 12:25:14;;;;;;;3.00;0.65;;;8.60;99.90;;;;;;5091205;28;20081;-51
2022/03/30 12:27:40;;;;;;;3.60;0.75;;;8.70;99.90;;;;;;5091069;28;20043;-52
2022/03/30 12:30:07;;;;;;;7.72;1.25;;;9.00;99.90;;;;;;5090469;28;20664;-52
2022/03/30 12:32:33;;;;;;;4.90;0.80;;;8.60;99.90;;;;;;5090673;28;20171;-53
2022/03/30 12:35:16;;;;;;;4.03;0.90;;;8.70;99.90;;;;;;5091977;28;20521;-51
2022/03/30 12:37:46;;;;;;;5.53;1.92;;;8.70;99.90;;;;;;5092206;28;20075;-51
2022/03/30 12:40:12;;;;;;;7.00;0.82;;;8.60;99.90;;;;;;5090962;28;20048;-48
2022/03/30 12:42:39;;;;;;;8.60;1.50;;;8.40;99.90;;;;;;5091727;28;20527;-51
2022/03/30 12:45:11;;;;;;;4.82;0.63;;;8.20;99.90;;;;;;5091195;28;20063;-51
2022/03/30 12:47:44;;;;;;;6.30;0.90;;;8.00;99.90;;;;;;5091117;28;20042;-49
2022/03/30 12:50:13;;;;;;;5.43;1.00;;;8.20;99.90;;;;;;5091160;28;20458;-49
2022/03/30 12:52:45;;;;;;;5.90;1.05;;;8.30;99.90;;;;;;5092509;28;20059;-53
2022/03/30 12:55:19;;;;;;;4.53;0.85;;;8.20;99.90;;;;;;5091624;28;20531;-50
2022/03/30 12:57:58;;;;;;;4.28;0.90;;;8.20;99.90;;;;;;5091314;28;20071;-50
2022/03/30 13:00:26;;;;;;;7.10;1.42;;;8.00;99.90;;;;;;5091293;28;20047;-50
2022/03/30 13:03:13;;;;;;;6.35;0.70;;;8.30;99.90;;;;;;5092788;28;20039;-49
2022/03/30 13:05:40;;;;;;;6.10;0.73;;;8.50;99.90;;;;;;5093358;28;20040;-52
2022/03/30 13:08:24;;;;;;;3.92;0.70;;;8.50;99.90;;;;;;5093093;28;20035;-53
2022/03/30 13:11:02;;;;;;;7.10;1.25;;;8.50;99.90;;;;;;5091622;28;20526;-49
2022/03/30 13:13:36;;;;;;;3.63;0.90;;;8.50;99.90;;;;;;5092953;28;20075;-50
2022/03/30 13:16:10;;;;;;;5.80;1.17;;;8.60;99.90;;;;;;5072051;28;21101;-48
2022/03/30 13:18:39;;;;;;;3.20;0.47;;;8.80;99.90;;;;;;5071414;28;21285;-52
2022/03/30 13:21:12;;;;;;;5.68;1.10;;;8.90;99.90;;;;;;5091464;28;20032;-53
2022/03/30 13:23:42;;;;;;;3.58;1.67;;;8.90;99.90;;;;;;5090328;28;20457;-52
2022/03/30 13:26:28;;;;;;;5.40;0.98;;;8.80;99.90;;;;;;5071012;28;20519;-49
2022/03/30 13:28:55;;;;;;;6.03;0.90;;;8.50;99.90;;;;;;5091946;28;20043;-50
2022/03/30 13:31:21;;;;;;;3.67;0.80;;;8.50;99.90;;;;;;5090402;28;20035;-52
2022/03/30 13:33:52;;;;;;;7.30;1.48;;;8.70;99.90;;;;;;5090127;28;20576;-50
2022/03/30 13:36:17;;;;;;;6.32;1.08;;;8.60;99.90;;;;;;5090082;28;20068;-49
2022/03/30 13:38:50;;;;;;;6.20;0.80;;;8.40;99.90;;;;;;5091137;28;20122;-53
2022/03/30 13:41:18;;;;;;;5.28;1.88;;;8.40;99.90;;;;;;5091462;28;20036;-51
2022/03/30 13:43:45;;;;;;;4.60;0.82;;;8.20;99.90;;;;;;5091335;28;20595;-53
2022/03/30 13:46:11;;;;;;;2.60;1.17;;;8.20;99.90;;;;;;5088722;28;20120;-50